createdAt,value
2023-01-07T00:01:13.320Z,0
2023-01-07T00:02:29.595Z,0
2023-01-07T00:03:45.893Z,0
2023-01-07T00:05:02.201Z,0
2023-01-07T00:06:18.484Z,0
2023-01-07T00:07:34.790Z,0
2023-01-07T00:08:51.067Z,0
2023-01-07T00:10:07.370Z,0
2023-01-07T00:11:23.652Z,0
2023-01-07T00:12:39.953Z,0
2023-01-07T00:13:56.238Z,0
2023-01-07T00:15:12.546Z,0
2023-01-07T00:16:28.848Z,0
2023-01-07T00:17:45.144Z,0
2023-01-07T00:19:00.439Z,0
2023-01-07T00:20:16.734Z,0
2023-01-07T00:21:33.020Z,0
2023-01-07T00:22:49.332Z,0
2023-01-07T00:24:05.633Z,0
2023-01-07T00:25:21.899Z,0
2023-01-07T00:26:38.202Z,0
2023-01-07T00:27:54.500Z,0
2023-01-07T00:29:10.798Z,0
2023-01-07T00:30:27.103Z,0
2023-01-07T00:31:43.373Z,0
2023-01-07T00:32:59.684Z,0
2023-01-07T00:34:15.958Z,0
2023-01-07T00:35:31.280Z,0
2023-01-07T00:36:47.565Z,0
2023-01-07T00:38:03.866Z,0
2023-01-07T00:39:20.175Z,0
2023-01-07T00:40:36.441Z,0
2023-01-07T00:41:52.751Z,0
2023-01-07T00:43:09.058Z,0
2023-01-07T00:44:25.325Z,0
2023-01-07T00:45:41.628Z,0
2023-01-07T00:46:57.918Z,0
2023-01-07T00:48:14.202Z,0
2023-01-07T00:49:30.510Z,0
2023-01-07T00:50:46.803Z,0
2023-01-07T00:53:18.406Z,0
2023-01-07T00:54:34.702Z,0
2023-01-07T00:55:51.002Z,0
2023-01-07T00:57:07.279Z,0
2023-01-07T00:58:23.567Z,0
2023-01-07T00:59:39.877Z,0
2023-01-07T01:00:56.159Z,0
2023-01-07T01:02:12.460Z,0
2023-01-07T01:03:28.749Z,0
2023-01-07T01:04:45.037Z,0
2023-01-07T01:06:01.333Z,0
2023-01-07T01:07:17.627Z,0
2023-01-07T01:08:32.934Z,0
2023-01-07T01:09:49.245Z,0
2023-01-07T01:11:05.529Z,0
2023-01-07T01:12:21.819Z,0
2023-01-07T01:13:38.117Z,0
2023-01-07T01:14:54.407Z,0
2023-01-07T01:16:10.704Z,0
2023-01-07T01:17:27.000Z,0
2023-01-07T01:18:43.284Z,0
2023-01-07T01:19:59.595Z,0
2023-01-07T01:21:15.898Z,0
2023-01-07T01:22:32.169Z,0
2023-01-07T01:23:48.478Z,0
2023-01-07T01:25:03.787Z,0
2023-01-07T01:26:20.069Z,0
2023-01-07T01:27:36.371Z,0
2023-01-07T01:28:52.669Z,0
2023-01-07T01:30:08.952Z,0
2023-01-07T01:31:25.241Z,0
2023-01-07T01:32:41.533Z,0
2023-01-07T01:33:57.841Z,0
2023-01-07T01:35:14.132Z,0
2023-01-07T01:36:30.429Z,0
2023-01-07T01:37:46.727Z,0
2023-01-07T01:39:03.017Z,0
2023-01-07T01:40:19.303Z,0
2023-01-07T01:41:34.605Z,0
2023-01-07T01:42:50.906Z,0
2023-01-07T01:44:07.206Z,0
2023-01-07T01:45:23.497Z,0
2023-01-07T01:46:39.782Z,0
2023-01-07T01:47:56.096Z,0
2023-01-07T01:49:12.367Z,0
2023-01-07T01:50:28.673Z,0
2023-01-07T01:51:44.977Z,0
2023-01-07T01:53:01.259Z,0
2023-01-07T01:54:17.553Z,0
2023-01-07T01:55:33.846Z,0
2023-01-07T01:56:50.139Z,0
2023-01-07T01:58:05.446Z,0
2023-01-07T01:59:21.738Z,0
2023-01-07T02:00:38.039Z,0
2023-01-07T02:01:54.338Z,0
2023-01-07T02:03:10.615Z,0
2023-01-07T02:04:26.919Z,0
2023-01-07T02:05:43.212Z,0
2023-01-07T02:06:59.498Z,0
2023-01-07T02:08:15.794Z,0
2023-01-07T02:09:32.082Z,0
2023-01-07T02:10:48.376Z,0
2023-01-07T02:12:04.672Z,0
2023-01-07T02:13:20.974Z,0
2023-01-07T02:14:37.384Z,0
2023-01-07T02:15:53.689Z,0
2023-01-07T02:17:09.968Z,0
2023-01-07T02:18:26.272Z,0
2023-01-07T02:19:42.583Z,0
2023-01-07T02:20:58.858Z,0
2023-01-07T02:22:15.157Z,0
2023-01-07T02:23:31.437Z,0
2023-01-07T02:24:47.753Z,0
2023-01-07T02:26:04.031Z,0
2023-01-07T02:27:20.332Z,0
2023-01-07T02:28:36.625Z,0
2023-01-07T02:29:52.914Z,0
2023-01-07T02:31:08.225Z,0
2023-01-07T02:32:24.502Z,0
2023-01-07T02:33:40.804Z,0
2023-01-07T02:34:57.112Z,0
2023-01-07T02:36:13.386Z,0
2023-01-07T02:37:29.674Z,0
2023-01-07T02:38:45.986Z,0
2023-01-07T02:40:02.267Z,0
2023-01-07T02:41:18.557Z,0
2023-01-07T02:42:34.886Z,0
2023-01-07T02:43:51.150Z,0
2023-01-07T02:45:07.456Z,0
2023-01-07T02:47:40.027Z,0
2023-01-07T02:48:55.351Z,0
2023-01-07T02:50:11.648Z,0
2023-01-07T02:51:27.939Z,0
2023-01-07T02:52:44.219Z,0
2023-01-07T02:54:00.506Z,0
2023-01-07T02:55:16.801Z,0
2023-01-07T02:56:33.099Z,0
2023-01-07T02:57:49.396Z,0
2023-01-07T02:59:05.696Z,0
2023-01-07T03:00:21.976Z,0
2023-01-07T03:01:38.274Z,0
2023-01-07T03:02:54.582Z,0
2023-01-07T03:04:10.861Z,0
2023-01-07T03:05:26.176Z,0
2023-01-07T03:07:58.768Z,0
2023-01-07T03:09:15.056Z,0
2023-01-07T03:10:31.341Z,0
2023-01-07T03:11:47.651Z,0
2023-01-07T03:13:03.931Z,0
2023-01-07T03:14:20.229Z,0
2023-01-07T03:15:36.538Z,0
2023-01-07T03:16:52.811Z,0
2023-01-07T03:18:09.113Z,0
2023-01-07T03:19:25.393Z,0
2023-01-07T03:20:41.691Z,0
2023-01-07T03:21:57.000Z,0
2023-01-07T03:23:13.308Z,0
2023-01-07T03:24:29.592Z,0
2023-01-07T03:25:45.882Z,0
2023-01-07T03:27:02.190Z,0
2023-01-07T03:28:18.494Z,0
2023-01-07T03:29:34.762Z,0
2023-01-07T03:30:51.067Z,0
2023-01-07T03:32:07.353Z,0
2023-01-07T03:33:23.661Z,0
2023-01-07T03:34:39.937Z,0
2023-01-07T03:35:56.224Z,0
2023-01-07T03:37:12.525Z,0
2023-01-07T03:38:27.864Z,0
2023-01-07T03:39:44.128Z,0
2023-01-07T03:41:00.433Z,0
2023-01-07T03:42:16.724Z,0
2023-01-07T03:43:33.005Z,0
2023-01-07T03:44:49.302Z,0
2023-01-07T03:46:05.592Z,0
2023-01-07T03:47:21.880Z,0
2023-01-07T03:48:38.185Z,0
2023-01-07T03:49:54.471Z,0
2023-01-07T03:51:10.766Z,0
2023-01-07T03:53:43.375Z,0
2023-01-07T03:54:58.670Z,0
2023-01-07T03:56:14.969Z,0
2023-01-07T03:57:31.253Z,0
2023-01-07T03:58:47.550Z,0
2023-01-07T04:00:02.874Z,0
2023-01-07T04:01:19.166Z,0
2023-01-07T04:02:35.449Z,0
2023-01-07T04:03:51.739Z,0
2023-01-07T04:05:08.048Z,0
2023-01-07T04:06:24.344Z,0
2023-01-07T04:07:40.615Z,0
2023-01-07T04:08:56.927Z,0
2023-01-07T04:10:13.221Z,0
2023-01-07T04:11:29.506Z,0
2023-01-07T04:12:45.809Z,0
2023-01-07T04:14:02.100Z,0
2023-01-07T04:15:18.380Z,0
2023-01-07T04:16:33.700Z,0
2023-01-07T04:17:49.992Z,0
2023-01-07T04:19:06.294Z,0
2023-01-07T04:20:22.000Z,0
2023-01-07T04:21:38.881Z,0
2023-01-07T04:22:55.156Z,0
2023-01-07T04:24:11.457Z,0
2023-01-07T04:25:27.750Z,0
2023-01-07T04:26:44.032Z,0
2023-01-07T04:28:00.329Z,0
2023-01-07T04:29:16.620Z,0
2023-01-07T04:30:32.918Z,0
2023-01-07T04:31:49.206Z,0
2023-01-07T04:33:04.521Z,0
2023-01-07T04:34:20.833Z,0
2023-01-07T04:35:37.125Z,0
2023-01-07T04:36:53.404Z,0
2023-01-07T04:38:09.709Z,0
2023-01-07T04:39:26.001Z,0
2023-01-07T04:40:42.287Z,0
2023-01-07T04:41:58.580Z,0
2023-01-07T04:43:14.865Z,0
2023-01-07T04:44:31.181Z,0
2023-01-07T04:45:47.459Z,0
2023-01-07T04:47:03.757Z,0
2023-01-07T04:48:20.042Z,0
2023-01-07T04:49:35.370Z,0
2023-01-07T04:50:51.653Z,0
2023-01-07T04:52:07.934Z,0
2023-01-07T04:53:24.227Z,0
2023-01-07T04:54:40.536Z,0
2023-01-07T04:55:56.835Z,0
2023-01-07T04:57:13.121Z,0
2023-01-07T04:58:29.420Z,0
2023-01-07T04:59:45.695Z,0
2023-01-07T05:01:02.009Z,0
2023-01-07T05:02:18.284Z,0
2023-01-07T05:03:34.583Z,0
2023-01-07T05:04:50.882Z,0
2023-01-07T05:06:06.193Z,0
2023-01-07T05:07:22.492Z,0
2023-01-07T05:08:38.786Z,0
2023-01-07T05:09:55.070Z,0
2023-01-07T05:11:11.355Z,0
2023-01-07T05:12:27.656Z,0
2023-01-07T05:13:43.943Z,0
2023-01-07T05:15:00.243Z,0
2023-01-07T05:16:16.546Z,0
2023-01-07T05:17:32.825Z,0
2023-01-07T05:18:49.131Z,0
2023-01-07T05:20:05.433Z,0
2023-01-07T05:21:21.732Z,0
2023-01-07T05:22:38.124Z,0
2023-01-07T05:23:54.418Z,0
2023-01-07T05:25:10.739Z,0
2023-01-07T05:26:27.022Z,0
2023-01-07T05:27:43.323Z,0
2023-01-07T05:28:59.605Z,0
2023-01-07T05:30:15.889Z,0
2023-01-07T05:31:32.197Z,0
2023-01-07T05:32:48.493Z,0
2023-01-07T05:34:04.784Z,0
2023-01-07T05:35:21.066Z,0
2023-01-07T05:36:37.375Z,0
2023-01-07T05:37:53.662Z,0
2023-01-07T05:39:08.979Z,0
2023-01-07T05:40:25.259Z,0
2023-01-07T05:41:41.565Z,0
2023-01-07T05:42:57.853Z,0
2023-01-07T05:44:14.143Z,0
2023-01-07T05:45:30.430Z,0
2023-01-07T05:46:46.740Z,0
2023-01-07T05:48:03.035Z,0
2023-01-07T05:49:19.319Z,0
2023-01-07T05:50:35.611Z,0
2023-01-07T05:51:51.912Z,0
2023-01-07T05:53:08.209Z,0
2023-01-07T05:54:24.494Z,0
2023-01-07T05:55:39.804Z,0
2023-01-07T05:56:56.099Z,0
2023-01-07T05:58:12.388Z,0
2023-01-07T05:59:28.689Z,0
2023-01-07T06:00:44.977Z,0
2023-01-07T06:02:01.282Z,0
2023-01-07T06:03:17.569Z,0
2023-01-07T06:04:33.868Z,0
2023-01-07T06:05:50.165Z,0
2023-01-07T06:07:06.445Z,0
2023-01-07T06:08:22.743Z,0
2023-01-07T06:09:39.038Z,0
2023-01-07T06:10:55.336Z,0
2023-01-07T06:12:10.650Z,0
2023-01-07T06:13:26.949Z,0
2023-01-07T06:14:43.228Z,0
2023-01-07T06:15:59.520Z,0
2023-01-07T06:17:15.822Z,0
2023-01-07T06:18:32.107Z,0
2023-01-07T06:19:48.405Z,0
2023-01-07T06:21:04.699Z,0
2023-01-07T06:22:20.985Z,0
2023-01-07T06:23:37.287Z,0
2023-01-07T06:24:53.593Z,0
2023-01-07T06:26:09.889Z,0
2023-01-07T06:27:26.168Z,0
2023-01-07T06:28:41.482Z,0
2023-01-07T06:29:57.773Z,0
2023-01-07T06:31:14.063Z,0
2023-01-07T06:32:30.357Z,0
2023-01-07T06:33:46.659Z,0
2023-01-07T06:35:02.950Z,0
2023-01-07T06:36:19.252Z,0
2023-01-07T06:37:35.528Z,0
2023-01-07T06:38:51.837Z,0
2023-01-07T06:40:08.132Z,0
2023-01-07T06:41:24.418Z,0
2023-01-07T06:42:40.662Z,1
2023-01-07T06:43:56.945Z,0
2023-01-07T06:45:12.224Z,1
2023-01-07T06:46:28.458Z,1
2023-01-07T06:47:44.754Z,0
2023-01-07T06:49:01.048Z,0
2023-01-07T06:50:17.351Z,0
2023-01-07T06:51:33.640Z,0
2023-01-07T06:52:49.883Z,2
2023-01-07T06:54:06.135Z,1
2023-01-07T06:55:22.368Z,4
2023-01-07T06:56:38.603Z,1
2023-01-07T06:57:54.839Z,1
2023-01-07T06:59:11.093Z,2
2023-01-07T07:00:27.322Z,3
2023-01-07T07:01:42.593Z,3
2023-01-07T07:02:58.825Z,4
2023-01-07T07:04:15.058Z,4
2023-01-07T07:05:31.307Z,6
2023-01-07T07:06:47.551Z,7
2023-01-07T07:08:03.793Z,8
2023-01-07T07:09:20.021Z,10
2023-01-07T07:10:36.264Z,10
2023-01-07T07:11:52.504Z,13
2023-01-07T07:13:08.736Z,14
2023-01-07T07:14:24.977Z,15
2023-01-07T07:15:41.222Z,17
2023-01-07T07:16:57.456Z,20
2023-01-07T07:18:12.710Z,20
2023-01-07T07:19:28.963Z,20
2023-01-07T07:20:45.187Z,24
2023-01-07T07:22:01.439Z,26
2023-01-07T07:23:17.675Z,30
2023-01-07T07:24:33.917Z,35
2023-01-07T07:25:50.163Z,36
2023-01-07T07:27:06.394Z,40
2023-01-07T07:28:22.638Z,38
2023-01-07T07:29:38.873Z,42
2023-01-07T07:30:55.118Z,48
2023-01-07T07:32:11.348Z,51
2023-01-07T07:34:43.843Z,57
2023-01-07T07:35:59.089Z,64
2023-01-07T07:37:15.322Z,60
2023-01-07T07:38:31.581Z,67
2023-01-07T07:39:47.809Z,78
2023-01-07T07:41:04.046Z,83
2023-01-07T07:42:20.290Z,83
2023-01-07T07:43:36.520Z,81
2023-01-07T07:44:52.773Z,86
2023-01-07T07:46:09.008Z,87
2023-01-07T07:47:25.251Z,98
2023-01-07T07:48:41.488Z,104
2023-01-07T07:49:57.727Z,107
2023-01-07T07:51:13.974Z,116
2023-01-07T07:52:29.228Z,124
2023-01-07T07:55:01.703Z,135
2023-01-07T07:56:17.952Z,136
2023-01-07T07:57:34.192Z,135
2023-01-07T07:58:50.433Z,141
2023-01-07T08:00:06.664Z,147
2023-01-07T08:01:22.906Z,151
2023-01-07T08:02:39.142Z,156
2023-01-07T08:03:55.395Z,154
2023-01-07T08:05:11.632Z,157
2023-01-07T08:06:27.863Z,160
2023-01-07T08:07:44.105Z,164
2023-01-07T08:08:59.353Z,157
2023-01-07T08:10:15.595Z,159
2023-01-07T08:11:31.851Z,162
2023-01-07T08:12:48.092Z,173
2023-01-07T08:14:04.312Z,182
2023-01-07T08:15:19.582Z,194
2023-01-07T08:16:35.819Z,203
2023-01-07T08:17:52.056Z,210
2023-01-07T08:19:08.304Z,233
2023-01-07T08:20:24.533Z,244
2023-01-07T08:21:40.790Z,247
2023-01-07T08:22:57.023Z,266
2023-01-07T08:24:13.265Z,282
2023-01-07T08:25:29.499Z,284
2023-01-07T08:26:45.742Z,285
2023-01-07T08:28:01.989Z,289
2023-01-07T08:29:18.222Z,294
2023-01-07T08:30:34.470Z,285
2023-01-07T08:31:49.714Z,293
2023-01-07T08:33:05.965Z,306
2023-01-07T08:34:22.197Z,306
2023-01-07T08:35:38.444Z,314
2023-01-07T08:36:54.681Z,336
2023-01-07T08:38:10.919Z,329
2023-01-07T08:39:27.160Z,297
2023-01-07T08:40:43.392Z,277
2023-01-07T08:41:59.631Z,268
2023-01-07T08:43:15.886Z,267
2023-01-07T08:44:32.110Z,275
2023-01-07T08:45:48.357Z,268
2023-01-07T08:47:04.598Z,265
2023-01-07T08:48:19.859Z,259
2023-01-07T08:49:36.083Z,261
2023-01-07T08:50:52.328Z,258
2023-01-07T08:52:08.572Z,247
2023-01-07T08:53:24.810Z,245
2023-01-07T08:54:41.052Z,253
2023-01-07T08:55:57.292Z,264
2023-01-07T08:57:13.524Z,279
2023-01-07T08:58:29.775Z,290
2023-01-07T08:59:46.008Z,307
2023-01-07T09:01:02.258Z,319
2023-01-07T09:02:18.498Z,329
2023-01-07T09:03:34.741Z,335
2023-01-07T09:04:49.984Z,340
2023-01-07T09:06:06.235Z,351
2023-01-07T09:07:22.460Z,371
2023-01-07T09:08:38.715Z,375
2023-01-07T09:09:54.948Z,345
2023-01-07T09:11:11.193Z,292
2023-01-07T09:12:27.430Z,578
2023-01-07T09:13:43.673Z,329
2023-01-07T09:14:59.904Z,576
2023-01-07T09:16:16.144Z,437
2023-01-07T09:17:32.386Z,418
2023-01-07T09:18:48.623Z,402
2023-01-07T09:20:04.873Z,393
2023-01-07T09:21:20.135Z,393
2023-01-07T09:22:36.363Z,341
2023-01-07T09:23:52.604Z,570
2023-01-07T09:25:08.835Z,539
2023-01-07T09:26:25.083Z,634
2023-01-07T09:27:41.323Z,619
2023-01-07T09:28:57.574Z,565
2023-01-07T09:30:13.801Z,559
2023-01-07T09:31:30.045Z,529
2023-01-07T09:32:46.280Z,588
2023-01-07T09:34:02.516Z,575
2023-01-07T09:36:34.998Z,620
2023-01-07T09:37:50.251Z,600
2023-01-07T09:39:06.489Z,616
2023-01-07T09:40:22.731Z,595
2023-01-07T09:41:38.985Z,611
2023-01-07T09:42:55.222Z,582
2023-01-07T09:44:11.456Z,552
2023-01-07T09:45:27.704Z,849
2023-01-07T09:46:43.944Z,409
2023-01-07T09:48:00.174Z,1078
2023-01-07T09:49:16.416Z,610
2023-01-07T09:50:32.665Z,3304
2023-01-07T09:51:48.894Z,3306
2023-01-07T09:53:05.131Z,530
2023-01-07T09:54:20.391Z,565
2023-01-07T09:55:36.627Z,1727
2023-01-07T09:56:52.867Z,1920
2023-01-07T09:58:09.110Z,2634
2023-01-07T09:59:25.345Z,3199
2023-01-07T10:00:41.582Z,2106
2023-01-07T10:01:57.830Z,2540
2023-01-07T10:03:14.066Z,2141
2023-01-07T10:04:30.304Z,2462
2023-01-07T10:05:46.545Z,1462
2023-01-07T10:07:02.778Z,1074
2023-01-07T10:08:19.018Z,2718
2023-01-07T10:09:35.258Z,2550
2023-01-07T10:10:50.532Z,2062
2023-01-07T10:12:06.752Z,1614
2023-01-07T10:13:22.991Z,1181
2023-01-07T10:14:39.233Z,1503
2023-01-07T10:15:55.469Z,1588
2023-01-07T10:17:11.718Z,1516
2023-01-07T10:18:27.945Z,1022
2023-01-07T10:19:44.203Z,1463
2023-01-07T10:21:00.422Z,721
2023-01-07T10:22:16.664Z,926
2023-01-07T10:23:32.908Z,960
2023-01-07T10:24:49.146Z,1699
2023-01-07T10:26:05.382Z,1331
2023-01-07T10:27:20.637Z,991
2023-01-07T10:28:36.871Z,1079
2023-01-07T10:29:53.116Z,946
2023-01-07T10:31:09.355Z,886
2023-01-07T10:32:25.589Z,868
2023-01-07T10:33:41.845Z,861
2023-01-07T10:34:58.076Z,847
2023-01-07T10:36:14.319Z,787
2023-01-07T10:37:30.556Z,899
2023-01-07T10:38:46.799Z,945
2023-01-07T10:40:03.040Z,777
2023-01-07T10:41:19.264Z,424
2023-01-07T10:42:35.502Z,1629
2023-01-07T10:43:50.764Z,1252
2023-01-07T10:45:07.002Z,621
2023-01-07T10:46:23.243Z,1621
2023-01-07T10:47:39.482Z,1262
2023-01-07T10:48:55.722Z,1027
2023-01-07T10:50:11.960Z,828
2023-01-07T10:51:28.195Z,1067
2023-01-07T10:52:44.436Z,995
2023-01-07T10:54:00.687Z,800
2023-01-07T10:55:16.934Z,749
2023-01-07T10:56:33.155Z,781
2023-01-07T10:57:49.403Z,793
2023-01-07T10:59:05.645Z,1961
2023-01-07T11:00:20.899Z,1220
2023-01-07T11:01:37.141Z,1078
2023-01-07T11:02:53.374Z,1333
2023-01-07T11:04:09.607Z,811
2023-01-07T11:05:25.852Z,748
2023-01-07T11:06:42.098Z,1230
2023-01-07T11:07:58.324Z,5883
2023-01-07T11:09:14.564Z,1204
2023-01-07T11:10:30.803Z,2476
2023-01-07T11:11:47.040Z,5642
2023-01-07T11:13:03.286Z,2265
2023-01-07T11:14:19.518Z,790
2023-01-07T11:15:35.762Z,5483
2023-01-07T11:16:52.122Z,1025
2023-01-07T11:18:08.365Z,4134
2023-01-07T11:19:24.610Z,3578
2023-01-07T11:20:40.841Z,874
2023-01-07T11:21:57.075Z,1279
2023-01-07T11:23:13.328Z,3376
2023-01-07T11:24:29.558Z,7065
2023-01-07T11:25:45.790Z,4668
2023-01-07T11:27:02.041Z,1597
2023-01-07T11:28:18.272Z,1236
2023-01-07T11:29:34.518Z,1104
2023-01-07T11:30:50.742Z,1130
2023-01-07T11:32:06.982Z,2944
2023-01-07T11:33:22.249Z,1992
2023-01-07T11:34:38.483Z,1514
2023-01-07T11:35:54.725Z,1350
2023-01-07T11:37:10.963Z,1167
2023-01-07T11:38:27.202Z,864
2023-01-07T11:39:43.444Z,766
2023-01-07T11:40:59.681Z,608
2023-01-07T11:42:15.920Z,998
2023-01-07T11:43:32.147Z,1266
2023-01-07T11:44:48.397Z,909
2023-01-07T11:46:04.639Z,1273
2023-01-07T11:47:20.885Z,1347
2023-01-07T11:48:37.105Z,1261
2023-01-07T11:49:52.367Z,1194
2023-01-07T11:51:08.606Z,976
2023-01-07T11:52:24.843Z,1296
2023-01-07T11:53:41.082Z,1030
2023-01-07T11:54:57.000Z,1152
2023-01-07T11:56:13.580Z,987
2023-01-07T11:57:29.807Z,1037
2023-01-07T11:58:46.056Z,1037
2023-01-07T12:00:02.296Z,814
2023-01-07T12:01:18.514Z,869
2023-01-07T12:02:34.772Z,945
2023-01-07T12:03:50.995Z,771
2023-01-07T12:05:07.252Z,664
2023-01-07T12:06:22.496Z,522
2023-01-07T12:07:38.734Z,575
2023-01-07T12:08:54.983Z,1176
2023-01-07T12:10:11.210Z,1273
2023-01-07T12:11:27.466Z,1056
2023-01-07T12:12:43.687Z,1042
2023-01-07T12:13:59.931Z,1042
2023-01-07T12:15:16.172Z,866
2023-01-07T12:16:32.410Z,912
2023-01-07T12:17:48.650Z,1710
2023-01-07T12:19:04.896Z,2241
2023-01-07T12:20:21.136Z,1605
2023-01-07T12:21:37.373Z,1800
2023-01-07T12:22:52.636Z,1928
2023-01-07T12:24:08.876Z,2146
2023-01-07T12:25:25.114Z,1541
2023-01-07T12:26:41.344Z,1332
2023-01-07T12:27:57.579Z,1152
2023-01-07T12:29:13.839Z,2438
2023-01-07T12:30:29.080Z,1881
2023-01-07T12:31:45.334Z,3516
2023-01-07T12:33:01.573Z,6792
2023-01-07T12:34:17.811Z,6767
2023-01-07T12:35:34.040Z,2644
2023-01-07T12:36:50.286Z,5685
2023-01-07T12:38:06.524Z,7092
2023-01-07T12:39:22.761Z,1881
2023-01-07T12:40:39.000Z,6708
2023-01-07T12:41:55.242Z,1738
2023-01-07T12:43:11.476Z,1020
2023-01-07T12:44:27.712Z,820
2023-01-07T12:45:43.946Z,691
2023-01-07T12:46:59.206Z,563
2023-01-07T12:48:15.442Z,537
2023-01-07T12:49:31.695Z,648
2023-01-07T12:50:47.935Z,621
2023-01-07T12:52:04.161Z,623
2023-01-07T12:53:20.410Z,597
2023-01-07T12:54:36.641Z,603
2023-01-07T12:55:52.894Z,429
2023-01-07T12:57:09.122Z,294
2023-01-07T12:58:25.358Z,296
2023-01-07T12:59:41.602Z,298
2023-01-07T13:00:57.846Z,235
2023-01-07T13:02:14.083Z,384
2023-01-07T13:03:29.348Z,395
2023-01-07T13:04:45.568Z,394
2023-01-07T13:06:01.813Z,327
2023-01-07T13:07:18.050Z,261
2023-01-07T13:08:34.302Z,252
2023-01-07T13:09:50.527Z,420
2023-01-07T13:11:06.781Z,499
2023-01-07T13:12:23.021Z,347
2023-01-07T13:13:39.261Z,246
2023-01-07T13:14:55.495Z,206
2023-01-07T13:16:11.740Z,203
2023-01-07T13:17:27.975Z,182
2023-01-07T13:18:44.217Z,190
2023-01-07T13:19:59.469Z,178
2023-01-07T13:21:15.713Z,157
2023-01-07T13:22:31.952Z,145
2023-01-07T13:23:48.182Z,132
2023-01-07T13:25:04.433Z,118
2023-01-07T13:26:20.671Z,114
2023-01-07T13:27:36.912Z,110
2023-01-07T13:28:53.151Z,107
2023-01-07T13:30:09.393Z,101
2023-01-07T13:31:25.632Z,97
2023-01-07T13:32:41.872Z,90
2023-01-07T13:33:58.110Z,97
2023-01-07T13:35:14.355Z,95
2023-01-07T13:36:29.620Z,105
2023-01-07T13:37:45.841Z,104
2023-01-07T13:39:02.086Z,94
2023-01-07T13:40:18.325Z,88
2023-01-07T13:41:34.563Z,89
2023-01-07T13:42:50.803Z,98
2023-01-07T13:44:07.045Z,104
2023-01-07T13:45:23.278Z,95
2023-01-07T13:46:39.534Z,96
2023-01-07T13:47:55.756Z,102
2023-01-07T13:49:12.000Z,109
2023-01-07T13:50:28.252Z,109
2023-01-07T13:51:44.485Z,102
2023-01-07T13:52:59.738Z,101
2023-01-07T13:54:15.990Z,90
2023-01-07T13:55:32.236Z,84
2023-01-07T13:56:48.463Z,94
2023-01-07T13:58:04.697Z,119
2023-01-07T13:59:20.954Z,108
2023-01-07T14:00:37.187Z,89
2023-01-07T14:01:53.414Z,84
2023-01-07T14:03:09.662Z,79
2023-01-07T14:04:25.904Z,78
2023-01-07T14:05:42.143Z,76
2023-01-07T14:06:58.370Z,69
2023-01-07T14:08:14.625Z,64
2023-01-07T14:09:29.880Z,63
2023-01-07T14:10:46.117Z,61
2023-01-07T14:12:02.353Z,60
2023-01-07T14:13:18.598Z,59
2023-01-07T14:14:34.833Z,57
2023-01-07T14:15:51.076Z,59
2023-01-07T14:17:07.322Z,56
2023-01-07T14:18:23.571Z,62
2023-01-07T14:19:39.788Z,56
2023-01-07T14:20:56.036Z,50
2023-01-07T14:22:12.265Z,55
2023-01-07T14:23:28.521Z,61
2023-01-07T14:24:44.748Z,67
2023-01-07T14:26:00.028Z,67
2023-01-07T14:27:16.256Z,49
2023-01-07T14:28:32.482Z,52
2023-01-07T14:29:48.735Z,65
2023-01-07T14:31:04.961Z,60
2023-01-07T14:32:21.213Z,53
2023-01-07T14:33:37.464Z,50
2023-01-07T14:34:53.701Z,51
2023-01-07T14:36:09.934Z,46
2023-01-07T14:37:26.180Z,42
2023-01-07T14:38:42.425Z,39
2023-01-07T14:39:58.656Z,39
2023-01-07T14:41:14.887Z,37
2023-01-07T14:42:30.138Z,34
2023-01-07T14:43:46.382Z,35
2023-01-07T14:45:02.628Z,33
2023-01-07T14:46:18.866Z,30
2023-01-07T14:47:35.099Z,31
2023-01-07T14:48:51.350Z,32
2023-01-07T14:50:07.576Z,34
2023-01-07T14:51:23.825Z,32
2023-01-07T14:52:40.070Z,27
2023-01-07T14:53:56.319Z,35
2023-01-07T14:55:12.544Z,30
2023-01-07T14:56:28.780Z,29
2023-01-07T14:57:45.021Z,22
2023-01-07T14:59:00.285Z,19
2023-01-07T15:00:16.521Z,19
2023-01-07T15:01:32.757Z,21
2023-01-07T15:02:49.002Z,22
2023-01-07T15:04:05.235Z,20
2023-01-07T15:05:21.486Z,17
2023-01-07T15:06:37.729Z,17
2023-01-07T15:07:53.967Z,16
2023-01-07T15:09:10.192Z,8
2023-01-07T15:10:26.448Z,16
2023-01-07T15:11:42.685Z,12
2023-01-07T15:12:58.914Z,12
2023-01-07T15:14:15.152Z,10
2023-01-07T15:15:30.421Z,8
2023-01-07T15:16:46.659Z,12
2023-01-07T15:18:02.894Z,6
2023-01-07T15:19:19.139Z,8
2023-01-07T15:20:35.380Z,9
2023-01-07T15:21:51.618Z,6
2023-01-07T15:23:07.847Z,4
2023-01-07T15:24:24.087Z,4
2023-01-07T15:25:40.345Z,4
2023-01-07T15:26:56.572Z,3
2023-01-07T15:28:12.817Z,5
2023-01-07T15:29:29.049Z,2
2023-01-07T15:30:45.297Z,2
2023-01-07T15:32:00.558Z,1
2023-01-07T15:33:16.793Z,1
2023-01-07T15:34:33.035Z,2
2023-01-07T15:35:49.279Z,2
2023-01-07T15:37:05.582Z,0
2023-01-07T15:38:21.804Z,1
2023-01-07T15:39:38.046Z,1
2023-01-07T15:40:54.338Z,0
2023-01-07T15:42:10.639Z,0
2023-01-07T15:43:26.937Z,0
2023-01-07T15:44:43.213Z,0
2023-01-07T15:45:59.520Z,0
2023-01-07T15:47:15.804Z,0
2023-01-07T15:48:31.115Z,0
2023-01-07T15:49:47.416Z,0
2023-01-07T15:51:03.717Z,0
2023-01-07T15:52:20.003Z,0
2023-01-07T15:53:36.306Z,0
2023-01-07T15:54:52.603Z,0
2023-01-07T15:56:08.885Z,0
2023-01-07T15:57:25.125Z,1
2023-01-07T15:58:41.382Z,1
2023-01-07T15:59:57.608Z,1
2023-01-07T16:01:13.898Z,0
2023-01-07T16:02:30.205Z,0
2023-01-07T16:03:46.501Z,0
2023-01-07T16:05:01.818Z,0
2023-01-07T16:06:18.093Z,0
2023-01-07T16:07:34.342Z,1
2023-01-07T16:08:50.606Z,1
2023-01-07T16:10:06.887Z,0
2023-01-07T16:11:23.172Z,0
2023-01-07T16:12:39.477Z,0
2023-01-07T16:13:55.778Z,0
2023-01-07T16:15:12.064Z,0
2023-01-07T16:16:28.357Z,0
2023-01-07T16:17:44.647Z,0
2023-01-07T16:19:00.945Z,0
2023-01-07T16:20:17.241Z,0
2023-01-07T16:21:32.553Z,0
2023-01-07T16:22:48.856Z,0
2023-01-07T16:24:05.139Z,0
2023-01-07T16:25:21.444Z,0
2023-01-07T16:26:37.733Z,0
2023-01-07T16:27:54.018Z,0
2023-01-07T16:29:10.317Z,0
2023-01-07T16:30:26.607Z,0
2023-01-07T16:31:42.892Z,0
2023-01-07T16:32:59.187Z,0
2023-01-07T16:34:15.476Z,0
2023-01-07T16:35:31.784Z,0
2023-01-07T16:36:48.083Z,0
2023-01-07T16:38:03.377Z,0
2023-01-07T16:39:19.667Z,0
2023-01-07T16:40:35.962Z,0
2023-01-07T16:41:52.274Z,0
2023-01-07T16:43:08.558Z,0
2023-01-07T16:44:24.861Z,0
2023-01-07T16:45:40.171Z,0
2023-01-07T16:46:56.472Z,0
2023-01-07T16:48:12.746Z,0
2023-01-07T16:49:29.048Z,0
2023-01-07T16:50:45.000Z,0
2023-01-07T16:52:01.630Z,0
2023-01-07T16:53:17.935Z,0
2023-01-07T16:54:34.233Z,0
2023-01-07T16:55:50.510Z,0
2023-01-07T16:57:06.808Z,0
2023-01-07T16:58:23.112Z,0
2023-01-07T16:59:39.409Z,0
2023-01-07T17:00:55.697Z,0
2023-01-07T17:02:11.014Z,0
2023-01-07T17:03:27.295Z,0
2023-01-07T17:04:43.591Z,0
2023-01-07T17:05:59.892Z,0
2023-01-07T17:07:16.180Z,0
2023-01-07T17:08:32.478Z,0
2023-01-07T17:09:48.778Z,0
2023-01-07T17:11:05.064Z,0
2023-01-07T17:12:21.366Z,0
2023-01-07T17:13:37.658Z,0
2023-01-07T17:14:53.950Z,0
2023-01-07T17:16:10.243Z,0
2023-01-07T17:17:26.525Z,0
2023-01-07T17:18:41.833Z,0
2023-01-07T17:19:58.134Z,0
2023-01-07T17:21:14.439Z,0
2023-01-07T17:22:30.736Z,0
2023-01-07T17:23:47.016Z,0
2023-01-07T17:25:03.311Z,0
2023-01-07T17:26:19.608Z,0
2023-01-07T17:27:35.899Z,0
2023-01-07T17:28:52.195Z,0
2023-01-07T17:30:08.487Z,0
2023-01-07T17:31:24.785Z,0
2023-01-07T17:32:41.091Z,0
2023-01-07T17:33:57.373Z,0
2023-01-07T17:35:13.785Z,0
2023-01-07T17:36:30.079Z,0
2023-01-07T17:37:46.377Z,0
2023-01-07T17:39:02.678Z,0
2023-01-07T17:40:18.968Z,0
2023-01-07T17:41:35.265Z,0
2023-01-07T17:42:51.550Z,0
2023-01-07T17:44:07.844Z,0
2023-01-07T17:45:24.138Z,0
2023-01-07T17:46:40.432Z,0
2023-01-07T17:47:56.735Z,0
2023-01-07T17:49:13.019Z,0
2023-01-07T17:50:29.329Z,0
2023-01-07T17:51:44.622Z,0
2023-01-07T17:53:00.922Z,0
2023-01-07T17:54:17.208Z,0
2023-01-07T17:55:33.506Z,0
2023-01-07T17:56:49.799Z,0
2023-01-07T17:58:06.102Z,0
2023-01-07T17:59:22.400Z,0
2023-01-07T18:00:38.694Z,0
2023-01-07T18:01:54.980Z,0
2023-01-07T18:03:11.278Z,0
2023-01-07T18:04:27.563Z,0
2023-01-07T18:05:43.858Z,0
2023-01-07T18:07:00.159Z,0
2023-01-07T18:08:15.473Z,0
2023-01-07T18:09:31.753Z,0
2023-01-07T18:10:48.062Z,0
2023-01-07T18:12:04.366Z,0
2023-01-07T18:13:20.655Z,0
2023-01-07T18:14:36.940Z,0
2023-01-07T18:15:53.231Z,0
2023-01-07T18:17:09.520Z,0
2023-01-07T18:18:25.834Z,0
2023-01-07T18:19:42.117Z,0
2023-01-07T18:20:58.418Z,0